Latest Weather Observations for Macquarie Island

IDT60801

Issued at 9:01 am EST Monday 25 May 2015 (issued every 30 minutes, with the page automatically refreshed every 10 minutes)

About weather observations | Map of weather stations | Latest weather observations for TAS | Other Formats
Station Details ID: 300004 Name: MACQUARIE ISLAND Lat: -54.50 Lon: 158.94 Height: 6.0 m
Data from the previous 72 hours. | See also: Recent months at Macquarie Island
Date/Time
EST
Temp
°C
App
Temp
°C
Dew
Point
Rel
Hum
%
Delta-T
°C
Wind Press
QNH
hPa
Press
MSL
hPa
Rain
since 9 am
mm
Dir
 
Spd
km/h
Gust
km/h
Spd
kts
Gust
kts
25/09:00am 2.9 -4.7 -2.2 69 1.8 W 28 54 15 29 1017.1 - 0.0
25/08:30am 2.7 -6.3 -2.6 68 1.8 W 35 57 19 31 1017.2 - 0.0
25/08:05am 2.4 -7.1 -3.5 65 2.0 W 37 56 20 30 1017.0 - 0.0
25/08:00am 2.4 -7.5 -3.9 63 2.1 W 39 56 21 30 1017.1 - 0.0
25/07:30am 2.3 -6.5 -4.6 60 2.2 W 33 61 18 33 1017.3 - 0.0
25/07:00am 2.1 -7.5 -4.4 62 2.3 W 37 56 20 30 1017.2 - 0.0
25/06:30am 2.0 -6.2 -3.7 66 1.9 W 30 50 16 27 1017.4 - 0.0
25/06:00am 1.9 -5.5 -3.6 67 1.8 W 26 48 14 26 1017.4 1017.7 0.0
25/05:30am 1.8 -5.8 -5.3 59 2.4 W 26 44 14 24 1017.4 - 0.0
25/05:00am 1.5 -6.8 -5.0 62 2.2 W 30 48 16 26 1017.4 - 0.0
25/04:30am 1.3 -7.4 -5.4 61 2.2 W 32 54 17 29 1017.4 - 0.0
25/04:13am 1.2 -6.8 -5.3 62 2.1 WSW 28 50 15 27 1017.5 - 0.0
25/04:00am 1.2 -6.3 -4.8 64 2.0 WSW 26 41 14 22 1017.5 - 0.0
25/03:30am 1.1 -6.4 -4.9 64 2.0 WSW 26 56 14 30 1017.5 - 0.0
25/03:18am 1.0 -6.9 -4.6 66 1.9 WSW 28 59 15 32 1017.5 - 0.0
25/03:00am 0.8 -7.1 -4.8 66 1.8 WSW 28 43 15 23 1017.7 1018.0 0.0
25/02:30am 0.4 -6.8 -5.2 66 1.8 SW 24 46 13 25 1017.8 - 0.0
25/02:24am 0.6 -7.3 -5.0 66 1.8 SW 28 46 15 25 1017.9 - 0.0
25/02:00am 0.3 -6.1 -5.1 67 1.7 SW 20 37 11 20 1017.7 - 0.0
25/01:30am 0.4 -6.4 -5.2 66 1.8 SW 22 35 12 19 1017.8 - 0.0
25/01:19am 0.5 -7.4 -5.1 66 1.8 WSW 28 46 15 25 1017.8 - 0.0
25/01:00am 0.3 -6.1 -5.1 67 1.7 SW 20 35 11 19 1017.8 - 0.0
25/12:30am 0.1 -6.3 -5.3 67 1.7 SW 20 33 11 18 1017.7 - 0.0
25/12:00am 0.5 -6.6 -4.7 68 1.7 SSW 24 39 13 21 1017.6 1017.9 0.0
 
Date/Time
EST
Temp
°C
App
Temp
°C
Dew
Point
Rel
Hum
%
Delta-T
°C
Wind Press
QNH
hPa
Press
MSL
hPa
Rain
since 9 am
mm
Dir
 
Spd
km/h
Gust
km/h
Spd
kts
Gust
kts
24/11:30pm 0.3 -5.9 -5.3 66 1.8 SW 19 24 10 13 1017.5 - 0.0
24/11:00pm 0.4 -6.4 -5.0 67 1.7 S 22 37 12 20 1017.4 - 0.0
24/10:30pm 0.5 -6.7 -5.5 64 1.9 S 24 37 13 20 1017.4 - 0.0
24/10:00pm 0.6 -6.7 -5.8 62 2.0 S 24 39 13 21 1017.3 - 0.0
24/09:30pm 0.8 -6.4 -5.4 63 2.0 SSW 24 32 13 17 1017.2 - 0.0
24/09:00pm 0.8 -7.9 -5.0 65 1.9 S 32 41 17 22 1017.0 1017.3 0.0
24/08:30pm 0.8 -7.9 -5.4 63 2.0 S 32 43 17 23 1016.6 - 0.0
24/08:00pm 0.6 -8.2 -5.8 62 2.0 S 32 44 17 24 1016.4 - 0.0
24/07:31pm 0.6 -8.7 -5.0 66 1.8 S 35 54 19 29 1016.2 - 0.0
24/07:30pm 0.5 -9.2 -5.5 64 1.9 S 37 54 20 29 1016.2 - 0.0
24/07:15pm 0.5 -9.7 -7.0 57 2.3 S 39 63 21 34 1016.1 - 0.0
24/07:00pm 0.7 -8.6 -5.1 65 1.9 S 35 46 19 25 1015.8 - 0.0
24/06:51pm 0.7 -9.7 -5.3 64 1.9 S 41 59 22 32 1015.6 - 0.0
24/06:30pm 0.7 -8.2 -5.3 64 1.9 S 33 50 18 27 1015.4 - 0.0
24/06:27pm 0.7 -8.0 -5.3 64 1.9 S 32 50 17 27 1015.4 - 0.0
24/06:00pm 0.8 -8.4 -4.8 66 1.8 S 35 44 19 24 1015.0 1015.3 0.0
24/05:32pm 0.7 -8.5 -4.3 69 1.7 S 35 54 19 29 1014.7 - 0.0
24/05:30pm 0.8 -8.7 -4.0 70 1.6 S 37 54 20 29 1014.7 - 0.0
24/05:00pm 0.6 -9.8 -5.0 66 1.8 S 41 54 22 29 1014.3 - 0.0
24/04:36pm 0.5 -8.2 -5.3 65 1.9 S 32 50 17 27 1014.1 - 0.0
24/04:30pm 0.5 -7.8 -5.1 66 1.8 S 30 41 16 22 1014.1 - 0.0
24/04:00pm 0.5 -9.1 -4.9 67 1.8 S 37 50 20 27 1013.6 - 0.0
24/03:30pm 0.4 -9.0 -6.2 61 2.1 SSW 35 57 19 31 1013.1 - 0.0
24/03:21pm 0.6 -8.1 -5.6 63 2.0 SSW 32 56 17 30 1013.0 - 0.0
24/03:19pm 0.5 -8.3 -6.3 60 2.1 SW 32 44 17 24 1013.0 - 0.0
24/03:03pm 0.7 -9.3 -5.3 64 1.9 S 39 59 21 32 1012.7 - 0.0
24/03:00pm 0.7 -8.5 -4.9 66 1.8 S 35 50 19 27 1012.6 1012.9 0.0
24/02:31pm 0.6 -8.8 -6.3 60 2.2 S 35 54 19 29 1012.1 - 0.0
24/02:30pm 0.6 -9.2 -6.3 60 2.2 S 37 54 20 29 1012.1 - 0.0
24/02:18pm 0.7 -9.0 -5.5 63 2.0 S 37 59 20 32 1011.9 - 0.0
24/02:00pm 0.6 -9.9 -6.3 60 2.2 S 41 54 22 29 1011.5 - 0.0
24/01:30pm 0.8 -9.3 -6.1 60 2.2 S 39 59 21 32 1010.9 - 0.0
24/01:04pm 0.9 -9.2 -5.5 62 2.1 S 39 57 21 31 1010.4 - 0.0
24/01:00pm 0.9 -9.5 -5.5 62 2.1 S 41 57 22 31 1010.3 - 0.0
24/12:30pm 0.7 -11.2 -6.6 58 2.3 S 48 69 26 37 1009.7 - 0.0
24/12:01pm 0.7 -9.1 -6.2 60 2.2 S 37 59 20 32 1009.3 - 0.0
24/12:00pm 0.7 -9.1 -6.6 58 2.3 SSW 37 54 20 29 1009.3 1009.6 0.0
24/11:30am 0.4 -10.2 -7.1 57 2.3 S 41 65 22 35 1008.8 - 0.0
24/11:00am 0.5 -10.6 -6.1 61 2.1 S 44 69 24 37 1008.3 - 0.0
24/10:30am 0.3 -10.2 -6.3 61 2.0 SSW 41 59 22 32 1007.9 - 0.0
24/10:00am 0.2 -13.0 -8.5 52 2.5 S 54 76 29 41 1007.4 - 0.0
24/09:30am 0.1 -10.9 -6.9 59 2.1 SSW 43 61 23 33 1006.8 - 0.0
24/09:00am -0.2 -11.3 -6.4 63 1.9 S 44 74 24 40 1006.1 1006.4 2.4
24/08:30am 0.0 -13.0 -6.8 60 2.1 S 54 76 29 41 1005.5 - 2.4
24/08:00am -0.2 -13.3 -7.0 60 2.0 S 54 76 29 41 1004.9 - 2.4
24/07:30am -0.2 -12.8 -6.6 62 1.9 S 52 72 28 39 1004.2 - 2.4
24/07:00am -0.4 -11.3 -6.0 66 1.7 SSW 43 70 23 38 1003.6 - 2.4
24/06:33am -0.3 -13.0 -7.5 58 2.1 S 52 70 28 38 1003.1 - 2.4
24/06:30am -0.2 -13.3 -7.0 60 2.0 S 54 70 29 38 1002.9 - 2.4
24/06:27am -0.3 -13.4 -6.9 61 2.0 S 54 70 29 38 1002.8 - 2.4
24/06:00am -0.7 -11.7 -7.5 60 2.0 SSW 43 67 23 36 1002.6 1002.9 2.4
24/05:30am -0.5 -12.1 -7.3 60 2.0 S 46 76 25 41 1001.9 - 2.4
24/05:09am -1.0 -10.8 -7.1 63 1.8 SSW 37 70 20 38 1001.6 - 2.4
24/05:00am -1.2 -10.0 -6.5 67 1.5 SSW 32 50 17 27 1001.6 - 2.4
24/04:30am -1.6 -12.5 -6.0 72 1.3 S 43 65 23 35 1001.1 - 2.4
24/04:25am -2.1 -11.5 -5.9 75 1.1 SW 35 56 19 30 1001.1 - 2.4
24/04:08am -1.8 -12.8 -7.3 66 1.5 S 43 70 23 38 1001.0 - 2.4
24/04:00am -1.6 -10.4 -6.5 69 1.4 SSW 32 52 17 28 1000.7 - 2.4
24/03:43am -2.9 -14.3 -5.7 81 0.7 SSW 46 69 25 37 1000.9 - 2.4
24/03:41am -2.4 -13.5 -6.0 76 1.0 SSW 44 57 24 31 1000.8 - 2.4
24/03:30am -2.9 -14.0 -5.9 80 0.8 SW 44 74 24 40 1000.9 - 2.4
24/03:23am -1.7 -11.9 -7.0 67 1.5 SW 39 72 21 39 1000.5 - 2.4
24/03:21am -1.6 -10.5 -7.7 63 1.7 SW 32 52 17 28 1000.5 - 2.4
24/03:00am -1.6 -12.6 -7.5 64 1.7 S 43 67 23 36 1000.4 1000.7 2.4
24/02:30am -3.3 -13.8 -6.4 79 0.8 S 41 59 22 32 1000.9 - 2.4
24/02:21am -2.4 -11.5 -6.9 71 1.2 SSW 33 54 18 29 1000.4 - 2.4
24/02:20am -2.5 -11.4 -7.0 71 1.2 SSW 32 44 17 24 1000.3 - 2.4
24/02:16am -2.4 -13.1 -7.7 67 1.4 WSW 41 61 22 33 1000.3 - 2.4
24/02:14am -2.3 -12.6 -7.8 66 1.5 SW 39 54 21 29 1000.3 - 2.4
24/02:00am -2.4 -12.7 -8.3 64 1.6 SSW 39 57 21 31 1000.0 - 2.4
24/01:30am -2.5 -13.8 -8.8 62 1.6 S 44 70 24 38 999.6 - 2.4
24/01:00am -3.1 -14.3 -7.1 74 1.0 S 44 69 24 37 999.1 - 2.4
24/12:47am -2.9 -14.1 -7.8 69 1.3 S 44 72 24 39 999.1 - 2.4
24/12:32am -3.6 -12.8 -7.9 72 1.1 SSW 33 52 18 28 998.6 - 2.4
24/12:30am -3.7 -14.0 -7.8 73 1.0 S 39 52 21 28 998.5 - 2.4
24/12:20am -3.4 -16.6 -9.0 65 1.4 SW 54 76 29 41 998.8 - 2.4
24/12:00am -2.9 -14.2 -8.3 66 1.4 S 44 82 24 44 997.8 998.1 2.4
 
Date/Time
EST
Temp
°C
App
Temp
°C
Dew
Point
Rel
Hum
%
Delta-T
°C
Wind Press
QNH
hPa
Press
MSL
hPa
Rain
since 9 am
mm
Dir
 
Spd
km/h
Gust
km/h
Spd
kts
Gust
kts
23/11:51pm -3.7 -15.8 -8.5 69 1.2 S 48 72 26 39 998.0 - 2.4
23/11:50pm -3.6 -15.3 -8.8 67 1.3 S 46 59 25 32 998.1 - 2.4
23/11:41pm -3.9 -14.6 -7.8 74 0.9 SW 41 59 22 32 997.4 - 2.4
23/11:40pm -3.9 -14.9 -7.8 74 0.9 WSW 43 59 23 32 997.5 - 2.4
23/11:30pm -3.1 -12.5 -6.7 76 0.9 SSW 35 70 19 38 997.6 - 2.4
23/11:18pm -3.4 -13.7 -7.9 71 1.1 SW 39 61 21 33 997.3 - 2.4
23/11:10pm -3.1 -14.8 -8.7 65 1.4 S 46 65 25 35 996.8 - 2.4
23/11:07pm -3.1 -14.8 -8.2 68 1.3 S 46 61 25 33 996.9 - 2.4
23/11:00pm -3.7 -13.3 -8.7 68 1.2 SW 35 59 19 32 996.8 - 2.4
23/10:35pm -3.1 -11.8 -9.3 62 1.6 SW 30 67 16 36 996.4 - 2.4
23/10:32pm -3.0 -11.4 -10.5 56 1.8 SW 28 48 15 26 996.2 - 2.4
23/10:30pm -3.0 -11.4 -9.9 59 1.7 SW 28 41 15 22 996.2 - 2.4
23/10:14pm -3.1 -14.3 -7.6 71 1.2 SW 44 89 24 48 995.8 - 2.4
23/10:13pm -3.1 -12.7 -9.1 63 1.5 SW 35 57 19 31 995.9 - 2.4
23/10:07pm -3.1 -14.4 -10.4 57 1.8 S 43 65 23 35 995.6 - 2.4
23/10:06pm -3.0 -13.5 -10.1 58 1.8 S 39 56 21 30 995.6 - 2.4
23/10:00pm -3.3 -12.9 -8.9 65 1.4 SW 35 67 19 36 995.4 - 2.4
23/09:37pm -3.7 -14.7 -7.3 76 0.9 SSW 43 70 23 38 995.5 - 2.4
23/09:35pm -3.2 -14.0 -9.4 62 1.5 SSW 41 54 22 29 994.9 - 2.4
23/09:30pm -3.7 -14.8 -8.4 70 1.1 WSW 43 72 23 39 995.0 - 2.4
23/09:25pm -3.8 -14.5 -8.5 70 1.1 SW 41 72 22 39 995.0 - 2.4
23/09:04pm -4.3 -13.2 -7.1 81 0.6 SW 32 54 17 29 994.6 - 2.4
23/09:00pm -4.8 -16.4 -7.4 82 0.6 SSW 46 72 25 39 994.6 994.9 2.4
23/08:59pm -4.6 -16.2 -7.2 82 0.6 S 46 72 25 39 994.6 - 2.4
23/08:43pm -3.3 -14.3 -7.8 71 1.1 SW 43 74 23 40 994.3 - 2.4
23/08:37pm -3.1 -12.7 -8.9 64 1.5 SW 35 54 19 29 993.7 - 2.4
23/08:30pm -3.2 -14.0 -8.8 65 1.4 SSW 41 80 22 43 993.6 - 2.4
23/08:00pm -4.0 -15.0 -7.4 77 0.8 SSW 43 82 23 44 993.2 - 2.4
23/07:53pm -3.3 -14.5 -6.9 76 0.9 SSW 44 82 24 44 993.2 - 2.4
23/07:48pm -2.6 -13.5 -6.6 74 1.1 SSW 43 61 23 33 992.8 - 2.4
23/07:46pm -2.5 -14.0 -7.0 71 1.2 S 46 57 25 31 992.5 - 2.4
23/07:30pm -3.5 -12.2 -5.6 85 0.5 SW 32 67 17 36 992.3 - 2.4
23/07:24pm -3.8 -13.5 -5.6 87 0.4 SSW 37 56 20 30 992.5 - 2.4
23/07:22pm -3.8 -14.6 -5.5 88 0.4 SSW 43 56 23 30 992.5 - 2.4
23/07:08pm -4.2 -12.9 -5.3 92 0.2 SW 32 50 17 27 992.2 - 2.4
23/07:07pm -4.2 -12.5 -5.3 92 0.2 SW 30 46 16 25 992.2 - 2.4
23/07:01pm -4.0 -14.5 -5.8 87 0.4 SSW 41 65 22 35 992.0 - 2.4
23/07:00pm -3.4 -13.1 -5.2 87 0.4 SW 37 76 20 41 992.0 - 2.4
23/06:45pm -3.8 -16.8 -6.1 84 0.5 WSW 54 80 29 43 991.9 - 2.4
23/06:35pm -2.5 -11.4 -7.4 69 1.3 WSW 32 59 17 32 991.3 - 2.4
23/06:30pm -2.3 -12.3 -8.4 63 1.6 SW 37 70 20 38 991.3 - 2.4
23/06:03pm -1.7 -11.2 -7.0 67 1.5 SW 35 74 19 40 990.9 - 2.4
23/06:00pm -1.8 -10.8 -6.3 71 1.3 SSW 33 54 18 29 990.7 991.0 2.4
23/05:50pm -2.3 -15.3 -6.5 73 1.1 SW 54 89 29 48 990.8 - 2.4
23/05:31pm -1.1 -10.5 -6.0 69 1.4 SW 35 56 19 30 990.4 - 2.4
23/05:30pm -1.0 -10.4 -6.1 68 1.5 SSW 35 46 19 25 990.2 - 2.4
23/05:00pm -0.6 -11.1 -6.3 65 1.7 WSW 41 80 22 43 989.2 - 2.4
23/04:30pm 0.0 -11.7 -4.6 71 1.5 SW 48 87 26 47 988.8 - 2.4
23/04:21pm -0.1 -11.4 -4.3 73 1.4 SW 46 87 25 47 988.7 - 2.4
23/04:19pm 0.0 -15.6 -4.1 74 1.3 WSW 69 87 37 47 988.5 - 2.4
23/04:14pm 0.4 -10.3 -3.9 73 1.4 WSW 43 89 23 48 988.7 - 2.2
23/04:08pm 0.6 -7.9 -3.1 76 1.3 W 32 63 17 34 988.1 - 2.2
23/04:06pm 0.4 -9.4 -3.0 78 1.2 SW 39 57 21 31 988.1 - 2.2
23/04:00pm 0.2 -13.6 -2.0 85 0.8 W 61 115 33 62 987.4 - 2.2
23/03:54pm 0.4 -13.2 -3.0 78 1.2 W 59 115 32 62 987.6 - 2.2
23/03:46pm 1.0 -9.7 -2.9 75 1.4 W 44 83 24 45 987.7 - 2.0
23/03:45pm 1.1 -8.7 -2.8 75 1.4 W 39 65 21 35 987.8 - 2.0
23/03:41pm 1.3 -9.3 -3.4 71 1.6 WSW 43 69 23 37 987.4 - 2.0
23/03:38pm 1.8 -10.5 -3.5 68 1.8 W 52 91 28 49 987.1 - 2.0
23/03:30pm 2.2 -14.3 -3.9 64 2.0 W 74 104 40 56 986.9 - 2.0
23/03:00pm 2.3 -13.3 -3.8 64 2.1 W 69 104 37 56 987.0 987.3 2.0
23/02:30pm 2.6 -13.7 -5.3 56 2.5 W 72 115 39 62 986.6 - 2.0
23/02:23pm 2.5 -15.7 -5.1 57 2.4 W 82 115 44 62 986.7 - 2.0
23/02:19pm 2.5 -15.8 -4.2 61 2.2 W 83 98 45 53 986.7 - 2.0
23/02:00pm 1.5 -12.2 -0.9 84 0.9 W 61 85 33 46 986.9 - 2.0
23/01:42pm 0.3 -15.6 -1.9 85 0.8 W 72 109 39 59 987.6 - 1.8
23/01:35pm 1.5 -9.5 -1.7 79 1.1 W 46 98 25 53 986.9 - 1.8
23/01:33pm 1.6 -8.0 -1.3 81 1.0 W 39 65 21 35 986.9 - 1.8
23/01:30pm 1.5 -11.8 -0.9 84 0.9 W 59 91 32 49 986.9 - 1.8
23/01:00pm 1.9 -10.1 -1.2 80 1.1 W 52 96 28 52 987.0 - 0.8
23/12:41pm 1.9 -9.4 -1.2 80 1.1 W 48 82 26 44 987.3 - 0.6
23/12:30pm 3.7 -12.3 -2.3 65 2.1 W 72 91 39 49 986.7 - 0.4
23/12:00pm 2.7 -14.2 -0.9 77 1.3 W 78 100 42 54 987.3 987.6 0.4
23/11:57am 2.1 -15.7 -1.5 77 1.3 W 82 100 44 54 987.4 - 0.4
23/11:54am 2.1 -16.6 -1.7 76 1.3 W 87 100 47 54 987.4 - 0.4
23/11:33am 2.4 -12.5 -1.4 76 1.3 W 67 89 36 48 987.4 - 0.4
23/11:30am 1.8 -12.7 -1.4 79 1.1 W 65 80 35 43 987.5 - 0.4
23/11:28am 1.1 -12.4 -2.3 78 1.2 W 59 78 32 42 987.8 - 0.4
23/11:26am 0.7 -17.4 -2.3 80 1.1 W 83 102 45 55 988.2 - 0.4
23/11:22am 2.0 -17.4 -1.1 80 1.1 W 91 102 49 55 987.8 - 0.4
23/11:00am 1.2 -14.2 -2.2 78 1.2 W 69 91 37 49 988.3 - 0.0
23/10:40am 3.5 -10.8 0.0 78 1.3 W 65 83 35 45 987.8 - 0.0
23/10:30am 4.0 -11.2 0.5 78 1.3 W 70 87 38 47 987.5 - 0.0
23/10:00am 3.9 -10.5 -0.3 74 1.6 W 65 85 35 46 988.0 - 0.0
23/09:30am 3.9 -9.7 -0.5 73 1.6 W 61 83 33 45 988.1 - 0.0
23/09:00am 3.8 -10.2 -0.2 75 1.5 W 63 83 34 45 988.6 988.9 1.8
23/08:34am 3.5 -11.0 -1.1 72 1.7 W 65 91 35 49 988.7 - 1.8
23/08:30am 3.5 -10.9 -0.5 75 1.5 W 65 80 35 43 988.7 - 1.8
23/08:00am 3.0 -11.0 -0.6 77 1.3 W 63 82 34 44 989.4 - 1.8
23/07:30am 3.3 -9.5 -0.2 78 1.3 W 57 76 31 41 989.2 - 1.8
23/07:00am 2.5 -9.8 -0.4 81 1.1 W 54 76 29 41 989.9 - 1.4
23/06:30am 2.9 -10.4 -0.9 76 1.4 W 59 78 32 42 990.2 - 1.4
23/06:00am 3.2 -10.1 -1.0 74 1.5 W 59 78 32 42 990.1 990.4 1.4
23/05:30am 3.2 -9.9 -2.3 67 1.9 W 57 76 31 41 990.6 - 1.4
23/05:00am 2.9 -10.9 -2.0 70 1.7 W 61 83 33 45 990.3 - 1.4
23/04:30am 3.0 -9.4 -1.2 74 1.5 W 54 72 29 39 990.4 - 1.4
23/04:11am 2.3 -9.4 -1.5 76 1.3 W 50 80 27 43 990.6 - 1.4
23/04:00am 2.7 -9.3 -0.9 77 1.3 W 52 65 28 35 990.8 - 1.4
23/03:38am 2.0 -10.8 -1.1 80 1.1 W 56 74 30 40 991.2 - 1.4
23/03:30am 2.4 -12.2 -2.1 72 1.6 W 65 76 35 41 991.3 - 1.4
23/03:28am 2.5 -12.1 -1.8 73 1.5 W 65 76 35 41 991.3 - 1.4
23/03:25am 2.3 -8.7 -1.8 74 1.4 W 46 70 25 38 991.2 - 1.4
23/03:00am 2.1 -8.8 -1.3 78 1.2 W 46 57 25 31 991.8 992.1 1.4
23/02:30am 1.2 -9.9 -2.9 74 1.5 W 46 82 25 44 992.2 - 1.4
23/02:11am 2.5 -10.7 -2.8 68 1.8 W 57 76 31 41 992.1 - 1.4
23/02:00am 2.5 -10.8 -3.6 64 2.0 W 57 74 31 40 992.0 - 1.4
23/01:32am 2.3 -10.4 -3.8 64 2.0 W 54 72 29 39 991.8 - 1.4
23/01:30am 2.4 -10.3 -3.5 65 2.0 W 54 69 29 37 992.0 - 1.4
23/01:00am 1.6 -10.9 -1.8 78 1.2 W 54 72 29 39 991.9 - 1.4
23/12:31am 2.0 -9.0 -1.8 76 1.3 W 46 65 25 35 991.7 - 1.4
23/12:30am 2.0 -9.0 -1.8 76 1.3 W 46 57 25 31 991.8 - 1.4
23/12:00am 1.7 -8.9 -1.9 77 1.3 W 44 56 24 30 992.1 992.4 1.4
 
Date/Time
EST
Temp
°C
App
Temp
°C
Dew
Point
Rel
Hum
%
Delta-T
°C
Wind Press
QNH
hPa
Press
MSL
hPa
Rain
since 9 am
mm
Dir
 
Spd
km/h
Gust
km/h
Spd
kts
Gust
kts
22/11:30pm 1.2 -10.5 -1.7 81 1.0 W 50 74 27 40 992.3 - 1.4
22/11:00pm 2.0 -9.4 -2.1 74 1.4 W 48 70 26 38 992.0 - 1.4
22/10:49pm 2.1 -9.4 -3.2 68 1.8 W 48 72 26 39 991.8 - 1.4
22/10:30pm 1.9 -7.7 -1.7 77 1.3 W 39 50 21 27 992.1 - 1.4
22/10:00pm 1.7 -8.1 -2.8 72 1.5 W 39 69 21 37 992.1 - 1.4
22/09:30pm 0.9 -7.6 -1.5 84 0.8 W 33 61 18 33 991.8 - 1.4
22/09:22pm 0.5 -7.4 -1.6 86 0.8 W 30 61 16 33 991.9 - 1.4
22/09:19pm 0.3 -6.5 -1.9 85 0.8 WSW 24 35 13 19 992.0 - 1.4
22/09:00pm 1.1 -8.9 -1.3 84 0.9 W 41 70 22 38 991.6 991.9 1.2
22/08:34pm 1.0 -10.0 -1.7 82 0.9 W 46 65 25 35 991.3 - 1.2
22/08:30pm 1.0 -10.7 -1.7 82 0.9 W 50 67 27 36 991.4 - 1.2
22/08:00pm -0.5 -13.6 -2.1 89 0.5 W 57 78 31 42 991.8 - 0.6
22/07:32pm 2.1 -8.8 -1.5 77 1.3 W 46 67 25 36 991.1 - 0.6
22/07:30pm 2.1 -8.7 -0.8 81 1.0 W 46 59 25 32 991.1 - 0.6
22/07:00pm 2.2 -8.2 -1.6 76 1.3 W 43 78 23 42 991.4 - 0.6
22/06:59pm 2.5 -7.5 -1.3 76 1.4 W 41 67 22 36 991.3 - 0.6
22/06:30pm 2.0 -8.6 -2.0 75 1.4 W 44 54 24 29 991.4 - 0.6
22/06:00pm 1.8 -8.8 -1.8 77 1.3 W 44 70 24 38 991.6 991.9 0.0
22/05:58pm 2.2 -8.4 -1.6 76 1.3 W 44 63 24 34 991.5 - 0.0
22/05:30pm 2.1 -8.5 -1.9 75 1.4 W 44 57 24 31 991.4 - 0.0
22/05:00pm 3.0 -7.6 -2.1 69 1.8 W 44 57 24 31 991.1 - 0.0
22/04:30pm 2.8 -8.0 -3.7 62 2.2 W 44 54 24 29 991.3 - 0.0
22/04:00pm 2.6 -8.6 -3.9 62 2.2 W 46 57 25 31 991.2 - 0.0
22/03:30pm 2.6 -9.3 -3.5 64 2.1 W 50 65 27 35 991.5 - 0.0
22/03:00pm 2.6 -8.4 -1.7 73 1.5 W 46 57 25 31 991.5 991.8 0.0
22/02:30pm 2.4 -8.4 -0.7 80 1.1 W 46 57 25 31 991.6 - 0.0
22/02:00pm 2.2 -7.2 0.1 86 0.8 W 39 50 21 27 991.5 - 0.0
22/01:35pm 3.5 -7.0 -0.9 73 1.6 WNW 44 69 24 37 991.5 - 0.0
22/01:30pm 3.4 -7.1 -2.5 65 2.1 W 43 54 23 29 991.6 - 0.0
22/01:00pm 3.2 -7.3 -2.5 66 2.0 W 43 52 23 28 992.0 - 0.0
22/12:30pm 3.5 -6.6 -2.7 64 2.2 W 41 50 22 27 992.4 - 0.0
22/12:00pm 2.7 -6.2 -1.6 73 1.5 W 35 46 19 25 992.8 993.1 0.0
22/11:53am 2.5 -6.4 -1.8 73 1.5 W 35 43 19 23 992.9 - 0.0
22/11:30am 1.7 -8.9 -3.0 71 1.6 WSW 43 54 23 29 993.3 - 0.0
22/11:22am 1.9 -9.3 -3.4 68 1.8 WSW 46 54 25 29 993.4 - 0.0
22/11:18am 2.7 -7.8 -2.4 69 1.8 W 43 65 23 35 993.2 - 0.0
22/11:00am 2.7 -6.6 -2.4 69 1.8 W 37 46 20 25 993.2 - 0.0
22/10:31am 3.2 -6.6 -2.7 65 2.0 W 39 65 21 35 993.3 - 0.0
22/10:30am 3.3 -5.8 -3.7 60 2.4 W 35 48 19 26 993.3 - 0.0
22/10:10am 2.6 -5.6 -3.9 62 2.2 W 30 48 16 26 993.5 - 0.0
22/10:00am 3.1 -6.6 -5.5 53 2.8 W 37 46 20 25 993.6 - 0.0
22/09:30am 2.7 -6.1 -4.1 61 2.3 W 33 44 18 24 993.7 - 0.0
22/09:11am 2.6 -7.7 -3.9 62 2.2 W 41 59 22 32 993.7 - 0.0

Other Formats:

Comma delimited format used in spreadsheet applications
http://www.bom.gov.au/fwo/IDT60801/IDT60801.94998.axf

JavaScript Object Notation format (JSON) in row-major order
http://www.bom.gov.au/fwo/IDT60801/IDT60801.94998.json